Time;durP1;ratioP1;P1;durP2;ratioP2;P2;SDS_P1;SDS_P2;PMS_P1;PMS_P2;Temp;Humidity;BMP_temperature;BMP_pressure;BME280_temperature;BME280_humidity;BME280_pressure;Samples;Min_cycle;Max_cycle;Signal;HPM_P1;HPM_P2
2023/08/19 00:00:59;;;;;;;15.77;14.18;;;23.50;98.00;;;;;;4955305;28;93693;-77
2023/08/19 00:03:26;;;;;;;14.40;12.85;;;23.50;98.10;;;;;;4964769;28;92875;-77
2023/08/19 00:05:51;;;;;;;14.13;12.73;;;23.50;97.90;;;;;;4966130;28;93712;-77
2023/08/19 00:08:17;;;;;;;14.85;13.35;;;23.50;97.90;;;;;;4948176;28;95684;-76
2023/08/19 00:10:43;;;;;;;17.52;14.23;;;23.50;98.00;;;;;;4954085;28;92959;-77
2023/08/19 00:13:09;;;;;;;14.32;12.82;;;23.60;98.10;;;;;;4946116;28;93326;-77
2023/08/19 00:15:34;;;;;;;15.60;13.00;;;23.50;98.00;;;;;;4947927;28;96919;-77
2023/08/19 00:18:01;;;;;;;19.42;13.85;;;23.60;98.20;;;;;;4966668;28;93059;-77
2023/08/19 00:20:30;;;;;;;15.80;13.43;;;23.50;98.10;;;;;;4965088;28;92282;-77
2023/08/19 00:22:56;;;;;;;18.52;13.93;;;23.60;98.10;;;;;;4965204;28;92894;-76
2023/08/19 00:25:25;;;;;;;16.48;12.15;;;23.60;98.00;;;;;;4963914;28;94651;-77
2023/08/19 00:27:52;;;;;;;19.13;12.98;;;23.50;97.80;;;;;;4964052;28;94273;-77
2023/08/19 00:30:18;;;;;;;15.07;13.48;;;23.60;98.00;;;;;;4965443;28;92745;-76
2023/08/19 00:32:44;;;;;;;17.23;14.73;;;23.50;97.90;;;;;;4965458;28;92645;-77
2023/08/19 00:35:10;;;;;;;15.70;13.25;;;23.60;98.40;;;;;;4962505;28;93827;-77
2023/08/19 00:37:36;;;;;;;17.27;13.52;;;23.50;98.40;;;;;;4964436;28;93456;-77
2023/08/19 00:40:05;;;;;;;15.75;13.20;;;23.50;98.30;;;;;;4963647;28;92443;-77
2023/08/19 00:42:31;;;;;;;19.58;12.82;;;23.50;98.40;;;;;;4965384;28;92114;-77
2023/08/19 00:44:57;;;;;;;17.48;13.52;;;23.50;98.20;;;;;;4965600;28;93610;-77
2023/08/19 00:47:24;;;;;;;19.33;13.85;;;23.50;98.40;;;;;;4953829;28;96555;-77
2023/08/19 00:49:50;;;;;;;20.13;13.43;;;23.50;98.40;;;;;;4963504;28;93677;-77
2023/08/19 00:52:18;;;;;;;16.13;13.18;;;23.40;98.40;;;;;;4963015;28;92762;-77
2023/08/19 00:54:44;;;;;;;17.55;15.05;;;23.40;98.50;;;;;;4964019;28;93217;-77
2023/08/19 00:57:11;;;;;;;15.23;12.93;;;23.40;98.40;;;;;;4962711;28;96364;-77
2023/08/19 00:59:37;;;;;;;21.35;13.82;;;23.40;98.30;;;;;;4963059;28;92613;-77
2023/08/19 01:02:03;;;;;;;16.35;14.20;;;23.40;98.40;;;;;;4964929;28;92698;-77
2023/08/19 01:04:29;;;;;;;15.98;13.57;;;23.40;98.30;;;;;;4944714;28;96708;-77
2023/08/19 01:06:59;;;;;;;20.95;13.73;;;23.40;98.40;;;;;;4963644;28;93864;-77
2023/08/19 01:09:47;;;;;;;17.02;12.98;;;23.30;98.60;;;;;;4965254;28;92742;-77
2023/08/19 01:12:16;;;;;;;18.45;12.05;;;23.30;98.50;;;;;;4965199;28;92688;-77
2023/08/19 01:15:00;;;;;;;16.30;12.45;;;23.30;98.40;;;;;;4963671;28;94582;-77
2023/08/19 01:17:29;;;;;;;15.07;12.60;;;23.30;98.40;;;;;;4962575;28;97514;-77
2023/08/19 01:19:55;;;;;;;16.42;13.07;;;23.30;98.60;;;;;;4964261;28;92588;-77
2023/08/19 01:22:51;;;;;;;13.82;12.32;;;23.30;98.60;;;;;;4963141;28;92903;-77
2023/08/19 01:25:18;;;;;;;15.93;12.50;;;23.20;98.50;;;;;;4954639;28;93786;-77
2023/08/19 01:27:43;;;;;;;15.57;12.70;;;23.20;98.70;;;;;;4964185;28;93454;-77
2023/08/19 01:30:11;;;;;;;15.00;11.88;;;23.20;98.70;;;;;;4963865;28;93847;-77
2023/08/19 01:32:38;;;;;;;17.33;11.73;;;23.20;98.60;;;;;;4963160;28;91862;-77
2023/08/19 01:35:05;;;;;;;16.02;12.27;;;23.20;98.60;;;;;;4962429;28;93836;-77
2023/08/19 01:38:03;;;;;;;14.70;11.48;;;23.20;98.60;;;;;;4945851;28;97706;-77
2023/08/19 01:40:30;;;;;;;15.05;10.77;;;23.20;98.70;;;;;;4961713;28;93754;-77
2023/08/19 01:42:59;;;;;;;12.40;10.65;;;23.20;98.80;;;;;;4963536;28;92599;-77
2023/08/19 01:45:25;;;;;;;13.07;10.65;;;23.20;98.80;;;;;;4963493;28;93572;-76
2023/08/19 01:47:53;;;;;;;13.57;9.60;;;23.20;98.70;;;;;;4963347;28;93094;-77
2023/08/19 01:50:19;;;;;;;13.85;10.32;;;23.20;98.70;;;;;;4963552;28;92899;-77
2023/08/19 01:52:45;;;;;;;14.05;10.38;;;23.20;98.60;;;;;;4963636;28;93191;-77
2023/08/19 01:55:10;;;;;;;13.50;9.73;;;23.20;98.70;;;;;;4962922;28;93467;-77
2023/08/19 01:57:36;;;;;;;13.30;9.88;;;23.20;98.60;;;;;;4965175;28;93389;-77
2023/08/19 02:00:04;;;;;;;12.32;10.35;;;23.20;98.60;;;;;;4946832;28;92868;-77
2023/08/19 02:02:30;;;;;;;14.50;10.15;;;23.20;98.50;;;;;;4962981;28;92639;-77
2023/08/19 02:04:55;;;;;;;12.52;9.63;;;23.20;98.50;;;;;;4944689;28;97633;-77
2023/08/19 02:07:21;;;;;;;16.08;10.18;;;23.30;98.60;;;;;;4945411;28;96262;-77
2023/08/19 02:09:46;;;;;;;12.38;9.75;;;23.20;98.50;;;;;;4963518;28;92860;-77
2023/08/19 02:12:12;;;;;;;11.00;9.90;;;23.20;98.70;;;;;;4965343;28;92911;-77
2023/08/19 02:14:38;;;;;;;10.13;9.13;;;23.20;98.60;;;;;;4964069;28;93509;-77
2023/08/19 02:17:04;;;;;;;14.23;9.25;;;23.20;98.60;;;;;;4962080;28;93587;-77
2023/08/19 02:19:29;;;;;;;9.52;8.48;;;23.30;98.60;;;;;;4964572;28;92647;-77
2023/08/19 02:21:55;;;;;;;10.90;9.23;;;23.30;98.50;;;;;;4963691;28;92160;-77
2023/08/19 02:24:21;;;;;;;10.73;8.98;;;23.20;98.50;;;;;;4962356;28;94066;-77
2023/08/19 02:26:46;;;;;;;16.77;9.43;;;23.30;98.40;;;;;;4962818;28;93138;-77
2023/08/19 02:29:12;;;;;;;14.10;9.60;;;23.30;98.30;;;;;;4953563;28;93875;-78
2023/08/19 02:31:38;;;;;;;11.40;9.25;;;23.30;98.40;;;;;;4945703;28;92798;-77
2023/08/19 02:34:04;;;;;;;13.52;9.35;;;23.30;98.40;;;;;;4963316;28;93690;-77
2023/08/19 02:36:31;;;;;;;11.13;8.43;;;23.30;98.50;;;;;;4962443;28;93272;-77
2023/08/19 02:38:57;;;;;;;14.00;9.57;;;23.20;98.40;;;;;;4964826;28;92754;-77
2023/08/19 02:41:23;;;;;;;12.27;8.90;;;23.20;98.50;;;;;;4963408;28;92682;-77
2023/08/19 02:43:50;;;;;;;11.70;8.07;;;23.20;98.60;;;;;;4946207;28;96426;-77
2023/08/19 02:46:15;;;;;;;13.63;8.63;;;23.20;98.40;;;;;;4963390;28;93531;-77
2023/08/19 02:48:41;;;;;;;16.33;7.82;;;23.20;98.30;;;;;;4962356;28;92540;-77
2023/08/19 02:51:07;;;;;;;12.20;7.15;;;23.20;98.10;;;;;;4945899;28;92971;-77
2023/08/19 02:53:32;;;;;;;10.30;7.00;;;23.20;98.00;;;;;;4962369;28;99521;-77
2023/08/19 02:55:58;;;;;;;9.63;6.82;;;23.20;97.80;;;;;;4964262;28;94380;-77
2023/08/19 02:58:24;;;;;;;8.60;7.25;;;23.20;97.90;;;;;;4943540;28;92612;-77
2023/08/19 03:00:50;;;;;;;15.45;7.22;;;23.20;98.10;;;;;;4964023;28;92906;-77
2023/08/19 03:03:16;;;;;;;9.68;6.85;;;23.20;98.00;;;;;;4961474;28;93814;-77
2023/08/19 03:05:42;;;;;;;8.32;6.68;;;23.30;98.10;;;;;;4963009;28;92983;-77
2023/08/19 03:08:09;;;;;;;9.95;6.65;;;23.30;98.00;;;;;;4965110;28;92651;-77
2023/08/19 03:10:36;;;;;;;10.13;7.03;;;23.30;98.10;;;;;;4964980;28;91803;-77
2023/08/19 03:13:06;;;;;;;7.68;6.85;;;23.30;98.10;;;;;;4963747;28;95981;-77
2023/08/19 03:15:33;;;;;;;8.60;7.10;;;23.30;98.00;;;;;;4961326;28;93381;-77
2023/08/19 03:17:58;;;;;;;9.73;6.55;;;23.30;97.90;;;;;;4964649;28;93886;-77
2023/08/19 03:20:24;;;;;;;7.50;6.45;;;23.30;98.00;;;;;;4962522;28;93319;-77
2023/08/19 03:22:50;;;;;;;8.90;6.30;;;23.30;98.10;;;;;;4961730;28;93806;-77
2023/08/19 03:25:16;;;;;;;11.20;6.70;;;23.30;98.00;;;;;;4962208;28;93391;-77
2023/08/19 03:27:42;;;;;;;9.52;7.40;;;23.30;97.90;;;;;;4945141;28;95869;-77
2023/08/19 03:30:08;;;;;;;9.57;7.05;;;23.30;97.90;;;;;;4963850;28;92587;-77
2023/08/19 03:32:34;;;;;;;8.60;6.50;;;23.30;98.00;;;;;;4962339;28;93759;-76
2023/08/19 03:34:59;;;;;;;8.32;6.90;;;23.30;97.90;;;;;;4963553;28;92977;-77
2023/08/19 03:37:25;;;;;;;11.93;6.50;;;23.30;98.00;;;;;;4962951;28;92823;-77
2023/08/19 03:39:51;;;;;;;9.45;6.63;;;23.30;98.10;;;;;;4962957;28;92455;-77
2023/08/19 03:42:17;;;;;;;8.52;6.55;;;23.30;98.10;;;;;;4961425;28;95301;-77
2023/08/19 03:44:43;;;;;;;9.77;7.03;;;23.30;98.20;;;;;;4961387;28;97065;-77
2023/08/19 03:47:13;;;;;;;9.77;6.65;;;23.30;98.00;;;;;;4963123;28;92520;-77
2023/08/19 03:49:39;;;;;;;9.25;5.82;;;23.20;98.00;;;;;;4962169;28;92849;-77
2023/08/19 03:52:06;;;;;;;8.15;6.65;;;23.30;97.60;;;;;;4945872;28;97172;-77
2023/08/19 03:54:32;;;;;;;10.32;6.32;;;23.20;97.80;;;;;;4962950;28;94374;-77
2023/08/19 03:56:57;;;;;;;9.82;6.68;;;23.30;97.50;;;;;;4964105;28;92666;-77
2023/08/19 03:59:23;;;;;;;8.93;6.45;;;23.20;97.50;;;;;;4962121;28;91869;-77
2023/08/19 04:01:48;;;;;;;7.78;5.35;;;23.20;97.60;;;;;;4962214;28;93550;-77
2023/08/19 04:04:14;;;;;;;8.60;6.22;;;23.20;97.50;;;;;;4962836;28;93195;-77
2023/08/19 04:06:40;;;;;;;11.75;6.75;;;23.20;97.30;;;;;;4963196;28;93428;-77
2023/08/19 04:09:06;;;;;;;12.95;5.95;;;23.20;97.70;;;;;;4963165;28;92368;-77
2023/08/19 04:11:32;;;;;;;8.85;6.47;;;23.20;97.70;;;;;;4964888;28;98281;-76
2023/08/19 04:13:58;;;;;;;9.98;5.93;;;23.20;97.50;;;;;;4965890;28;92899;-77
2023/08/19 04:16:24;;;;;;;8.48;5.32;;;23.20;97.50;;;;;;4967776;28;92646;-77
2023/08/19 04:18:50;;;;;;;12.45;6.40;;;23.30;97.40;;;;;;4949244;28;93014;-76
2023/08/19 04:21:16;;;;;;;10.98;6.05;;;23.20;97.20;;;;;;4955734;28;95633;-77
2023/08/19 04:23:42;;;;;;;12.15;5.47;;;23.20;97.30;;;;;;4958153;28;96010;-77
2023/08/19 04:26:08;;;;;;;10.57;6.55;;;23.20;97.00;;;;;;4967282;28;92530;-77
2023/08/19 04:28:33;;;;;;;8.77;5.63;;;23.30;97.00;;;;;;4948730;28;92661;-77
2023/08/19 04:31:10;;;;;;;8.75;6.10;;;23.30;97.00;;;;;;4947907;28;97845;-77
2023/08/19 04:33:36;;;;;;;8.35;5.70;;;23.30;97.10;;;;;;4965754;28;94321;-77
2023/08/19 04:36:03;;;;;;;11.38;6.07;;;23.30;97.20;;;;;;4969056;28;92617;-77
2023/08/19 04:38:29;;;;;;;10.80;5.72;;;23.30;97.20;;;;;;4967837;28;92828;-76
2023/08/19 04:40:54;;;;;;;9.93;6.03;;;23.30;97.20;;;;;;4966475;28;93069;-77
2023/08/19 04:43:21;;;;;;;11.18;5.70;;;23.30;96.80;;;;;;4965097;28;92255;-77
2023/08/19 04:45:47;;;;;;;12.23;5.90;;;23.30;96.80;;;;;;4964442;28;92836;-77
2023/08/19 04:48:13;;;;;;;10.52;5.93;;;23.30;96.70;;;;;;4966621;28;91876;-77
2023/08/19 04:50:39;;;;;;;11.45;6.10;;;23.30;96.50;;;;;;4966777;28;93919;-77
2023/08/19 04:53:04;;;;;;;9.13;6.07;;;23.40;96.60;;;;;;4965844;28;93335;-77
2023/08/19 04:55:30;;;;;;;12.40;5.90;;;23.40;97.00;;;;;;4965991;28;93180;-77
2023/08/19 04:57:56;;;;;;;9.95;6.45;;;23.40;97.30;;;;;;4967198;28;92374;-78
2023/08/19 05:00:22;;;;;;;12.65;5.85;;;23.40;97.30;;;;;;4966401;28;93351;-77
2023/08/19 05:02:49;;;;;;;9.82;6.68;;;23.40;97.10;;;;;;4966687;28;93122;-77
2023/08/19 05:05:14;;;;;;;12.13;6.53;;;23.50;97.60;;;;;;4966070;28;92627;-77
2023/08/19 05:07:40;;;;;;;14.45;6.93;;;23.50;97.10;;;;;;4968664;28;92603;-77
2023/08/19 05:10:06;;;;;;;10.15;6.70;;;23.50;97.40;;;;;;4967634;28;93637;-77
2023/08/19 05:12:32;;;;;;;8.70;6.03;;;23.50;97.40;;;;;;4948429;28;96304;-77
2023/08/19 05:14:58;;;;;;;9.90;6.20;;;23.50;97.60;;;;;;4966109;28;92261;-76
2023/08/19 05:17:23;;;;;;;8.07;5.78;;;23.50;97.40;;;;;;4966658;28;92173;-77
2023/08/19 05:19:49;;;;;;;14.68;6.05;;;23.50;97.50;;;;;;4966025;28;94666;-77
2023/08/19 05:22:15;;;;;;;12.38;6.85;;;23.50;97.40;;;;;;4964320;28;94381;-77
2023/08/19 05:24:41;;;;;;;12.27;5.88;;;23.60;97.30;;;;;;4965132;28;92562;-77
2023/08/19 05:27:07;;;;;;;11.95;6.97;;;23.60;97.40;;;;;;4947575;28;92518;-77
2023/08/19 05:29:32;;;;;;;8.45;5.97;;;23.60;97.30;;;;;;4967025;28;99777;-76
2023/08/19 05:31:58;;;;;;;12.68;6.95;;;23.60;96.90;;;;;;4964276;28;93345;-77
2023/08/19 05:34:27;;;;;;;10.75;6.20;;;23.60;96.80;;;;;;4949956;28;92540;-77
2023/08/19 05:36:52;;;;;;;10.27;6.00;;;23.60;96.80;;;;;;4965657;28;92181;-80
2023/08/19 05:39:18;;;;;;;12.25;6.03;;;23.70;97.10;;;;;;4966088;28;93359;-81
2023/08/19 05:41:44;;;;;;;8.48;6.28;;;23.70;97.00;;;;;;4966577;28;95349;-80
2023/08/19 05:44:09;;;;;;;10.20;6.55;;;23.70;97.40;;;;;;4951098;28;93733;-80
2023/08/19 05:46:36;;;;;;;11.77;6.53;;;23.70;97.40;;;;;;4964942;28;92634;-79
2023/08/19 05:49:01;;;;;;;13.38;6.47;;;23.70;97.50;;;;;;4954475;28;95117;-79
2023/08/19 05:51:27;;;;;;;10.20;6.38;;;23.70;96.80;;;;;;4947431;28;96955;-79
2023/08/19 05:54:00;;;;;;;9.38;5.70;;;23.70;97.00;;;;;;4947099;28;92623;-80
2023/08/19 05:56:27;;;;;;;11.77;5.95;;;23.70;96.90;;;;;;4965786;28;92234;-79
2023/08/19 05:58:53;;;;;;;12.77;6.13;;;23.70;96.60;;;;;;4963746;28;94284;-79
2023/08/19 06:01:18;;;;;;;10.45;6.70;;;23.70;96.60;;;;;;4962713;28;95427;-78
2023/08/19 06:03:44;;;;;;;9.80;5.65;;;23.80;96.50;;;;;;4947892;28;92759;-79
2023/08/19 06:06:10;;;;;;;10.35;5.85;;;23.80;96.40;;;;;;4963548;28;92665;-79
2023/08/19 06:08:36;;;;;;;11.02;5.65;;;23.80;96.30;;;;;;4963690;28;94698;-79
2023/08/19 06:11:05;;;;;;;11.98;6.10;;;23.90;96.10;;;;;;4946282;28;97131;-79
2023/08/19 06:13:31;;;;;;;11.15;6.38;;;23.90;96.40;;;;;;4947849;28;93130;-79
2023/08/19 06:15:57;;;;;;;8.88;6.00;;;24.00;96.40;;;;;;4969839;28;92760;-78
2023/08/19 06:18:24;;;;;;;9.20;6.07;;;24.10;96.30;;;;;;4945928;28;97051;-78
2023/08/19 06:20:50;;;;;;;13.15;6.22;;;24.10;96.40;;;;;;4964682;28;93984;-79
2023/08/19 06:23:20;;;;;;;9.40;5.38;;;24.20;96.30;;;;;;4966199;28;92906;-79
2023/08/19 06:25:50;;;;;;;11.98;6.20;;;24.20;96.20;;;;;;4964862;28;92120;-79
2023/08/19 06:28:20;;;;;;;14.45;6.10;;;24.20;96.20;;;;;;4953971;28;97228;-79
2023/08/19 06:30:47;;;;;;;11.63;5.95;;;24.30;96.20;;;;;;4964704;28;93788;-78
2023/08/19 06:33:14;;;;;;;10.07;5.85;;;24.30;96.10;;;;;;4963257;28;93644;-79
2023/08/19 06:35:40;;;;;;;8.93;5.15;;;24.40;95.80;;;;;;4946814;28;93132;-80
2023/08/19 06:38:27;;;;;;;9.25;5.93;;;24.50;96.20;;;;;;4963715;28;92953;-79
2023/08/19 06:43:38;;;;;;;9.63;5.35;;;24.60;95.90;;;;;;4953923;28;92594;-79
2023/08/19 06:46:05;;;;;;;7.55;5.15;;;24.70;96.00;;;;;;4965626;28;92379;-80
2023/08/19 06:48:32;;;;;;;10.32;5.78;;;24.80;95.70;;;;;;4963380;28;95317;-79
2023/08/19 06:50:58;;;;;;;13.60;5.97;;;24.80;95.50;;;;;;4955333;28;96024;-79
2023/08/19 06:53:24;;;;;;;13.82;5.82;;;24.90;95.80;;;;;;4945686;28;92943;-79
2023/08/19 06:56:22;;;;;;;10.32;5.68;;;25.00;95.40;;;;;;4963620;28;92914;-82
2023/08/19 06:59:09;;;;;;;12.20;5.32;;;25.10;95.40;;;;;;4944712;28;96413;-79
2023/08/19 07:01:39;;;;;;;7.60;5.57;;;25.20;95.80;;;;;;4962653;28;94045;-79
2023/08/19 07:04:05;;;;;;;12.80;5.03;;;25.30;95.70;;;;;;4969878;28;92840;-78
2023/08/19 07:06:32;;;;;;;10.80;4.75;;;25.30;95.30;;;;;;4962838;28;92613;-78
2023/08/19 07:08:59;;;;;;;8.55;5.43;;;25.40;94.70;;;;;;4960520;28;96653;-78
2023/08/19 07:11:27;;;;;;;12.32;5.55;;;25.50;94.70;;;;;;4945562;28;96572;-77
2023/08/19 07:13:52;;;;;;;8.75;5.05;;;25.60;94.80;;;;;;4947651;28;92774;-78
2023/08/19 07:16:22;;;;;;;13.32;5.07;;;25.60;94.80;;;;;;4960692;28;92376;-77
2023/08/19 07:18:50;;;;;;;7.10;5.60;;;25.70;94.10;;;;;;4945335;28;96423;-78
2023/08/19 07:21:18;;;;;;;9.70;5.28;;;25.80;94.60;;;;;;4961095;28;96351;-78
2023/08/19 07:23:45;;;;;;;8.77;5.25;;;25.90;94.30;;;;;;4953676;28;93729;-77
2023/08/19 07:26:12;;;;;;;13.43;5.47;;;26.00;94.20;;;;;;4962965;28;92689;-77
2023/08/19 07:28:38;;;;;;;8.27;5.30;;;26.10;94.80;;;;;;4961956;28;96640;-79
2023/08/19 07:31:04;;;;;;;13.35;4.80;;;26.20;94.70;;;;;;4963667;28;92666;-78
2023/08/19 07:33:30;;;;;;;8.93;4.78;;;26.40;93.00;;;;;;4960567;28;92504;-78
2023/08/19 07:35:56;;;;;;;9.52;5.00;;;26.50;92.70;;;;;;4946809;28;92725;-78
2023/08/19 07:38:21;;;;;;;8.23;4.80;;;26.60;92.20;;;;;;4945355;28;95856;-78
2023/08/19 07:40:47;;;;;;;9.73;5.47;;;26.70;92.00;;;;;;4962862;28;93333;-78
2023/08/19 07:43:13;;;;;;;7.63;4.72;;;26.80;91.40;;;;;;4962914;28;92638;-77
2023/08/19 07:45:39;;;;;;;8.43;4.57;;;26.90;91.40;;;;;;4963091;28;92703;-77
2023/08/19 07:48:05;;;;;;;9.40;5.45;;;27.00;91.60;;;;;;4967272;28;94482;-76
2023/08/19 07:50:31;;;;;;;9.15;4.88;;;27.10;92.10;;;;;;4966118;28;94578;-77
2023/08/19 07:52:56;;;;;;;10.57;5.05;;;27.10;90.80;;;;;;4964787;28;92459;-78
2023/08/19 07:55:22;;;;;;;9.10;5.07;;;27.20;90.90;;;;;;4966701;28;100638;-78
2023/08/19 07:57:48;;;;;;;12.60;5.30;;;27.20;91.20;;;;;;4946536;28;97138;-78
2023/08/19 08:00:14;;;;;;;6.50;4.45;;;27.20;91.30;;;;;;4947379;28;96527;-78
2023/08/19 08:02:39;;;;;;;7.07;4.78;;;27.30;91.40;;;;;;4967016;28;92289;-78
2023/08/19 08:05:06;;;;;;;10.60;5.53;;;27.30;90.90;;;;;;4950147;28;92014;-77
2023/08/19 08:07:34;;;;;;;9.75;5.60;;;27.30;91.20;;;;;;4965128;28;93300;-81
2023/08/19 08:09:59;;;;;;;10.68;5.38;;;27.40;91.10;;;;;;4949611;28;96785;-80
2023/08/19 08:12:25;;;;;;;9.80;5.15;;;27.40;91.40;;;;;;4964934;28;93258;-79
2023/08/19 08:14:51;;;;;;;19.85;7.47;;;27.40;91.40;;;;;;4948312;28;93022;-78
2023/08/19 08:17:16;;;;;;;13.05;5.63;;;27.40;91.60;;;;;;4946289;28;96728;-81
2023/08/19 08:19:42;;;;;;;11.32;5.65;;;27.30;91.50;;;;;;4963967;28;93830;-79
2023/08/19 08:22:08;;;;;;;14.18;6.82;;;27.30;91.90;;;;;;4946646;28;92856;-79
2023/08/19 08:24:33;;;;;;;17.92;7.22;;;27.20;91.90;;;;;;4965779;28;92799;-78
2023/08/19 08:26:59;;;;;;;10.55;5.38;;;27.20;92.00;;;;;;4965570;28;92800;-77
2023/08/19 08:29:25;;;;;;;12.50;6.07;;;27.20;92.40;;;;;;4964346;28;93840;-78
2023/08/19 08:31:50;;;;;;;8.82;5.78;;;27.20;92.30;;;;;;4966868;28;92825;-77
2023/08/19 08:34:16;;;;;;;9.00;5.43;;;27.20;92.00;;;;;;4965517;28;92760;-80
2023/08/19 08:36:42;;;;;;;7.72;5.85;;;27.20;92.40;;;;;;4945731;28;97329;-78
2023/08/19 08:39:10;;;;;;;9.00;6.18;;;27.20;92.40;;;;;;4964250;28;94675;-80
2023/08/19 08:41:39;;;;;;;11.18;6.75;;;27.20;92.70;;;;;;4948073;28;92932;-79
2023/08/19 08:44:06;;;;;;;9.98;6.00;;;27.20;92.70;;;;;;4948614;28;92261;-80
2023/08/19 08:46:34;;;;;;;11.50;6.30;;;27.20;92.10;;;;;;4964037;28;93530;-79
2023/08/19 08:49:01;;;;;;;9.85;6.07;;;27.20;92.70;;;;;;4963312;28;96842;-80
2023/08/19 08:51:27;;;;;;;9.93;6.43;;;27.10;92.40;;;;;;4954938;28;92849;-80
2023/08/19 08:53:56;;;;;;;9.52;6.15;;;27.00;92.60;;;;;;4967567;28;92314;-80
2023/08/19 08:56:23;;;;;;;9.15;6.03;;;27.00;93.20;;;;;;4946379;28;95287;-80
2023/08/19 08:58:49;;;;;;;8.10;6.80;;;27.10;93.20;;;;;;4961998;28;96272;-80
2023/08/19 09:01:17;;;;;;;7.00;5.70;;;27.10;93.30;;;;;;4965423;28;93800;-79
2023/08/19 09:03:45;;;;;;;11.00;6.70;;;27.00;93.40;;;;;;4947340;28;92650;-79
2023/08/19 09:06:16;;;;;;;10.52;6.43;;;26.90;93.60;;;;;;4966164;28;93616;-78
2023/08/19 09:09:04;;;;;;;10.35;6.22;;;26.90;93.80;;;;;;4964068;28;96366;-78
2023/08/19 09:11:34;;;;;;;12.98;6.28;;;26.80;93.50;;;;;;4965568;28;92752;-78
2023/08/19 09:14:30;;;;;;;11.50;7.38;;;26.80;93.90;;;;;;4971643;28;92797;-79
2023/08/19 09:16:58;;;;;;;11.15;6.63;;;26.70;94.10;;;;;;4965447;28;93962;-79
2023/08/19 09:19:24;;;;;;;8.70;6.30;;;26.70;94.40;;;;;;4961754;28;93725;-79
2023/08/19 09:21:50;;;;;;;8.18;6.32;;;26.70;94.10;;;;;;4945301;28;92572;-79
2023/08/19 09:24:16;;;;;;;10.70;6.93;;;26.60;94.50;;;;;;4946307;28;92638;-80
2023/08/19 09:26:43;;;;;;;11.30;7.28;;;26.60;94.70;;;;;;4947424;28;97224;-79
2023/08/19 09:29:09;;;;;;;10.27;7.15;;;26.70;94.80;;;;;;4946853;28;95305;-80
2023/08/19 09:31:38;;;;;;;12.65;7.10;;;26.70;94.90;;;;;;4963242;28;92528;-79
2023/08/19 09:34:05;;;;;;;11.00;7.45;;;26.70;94.90;;;;;;4946080;28;92196;-80
2023/08/19 09:36:31;;;;;;;10.68;6.82;;;26.70;94.90;;;;;;4964114;28;95395;-79
2023/08/19 09:38:58;;;;;;;15.13;7.32;;;26.80;94.90;;;;;;4948188;28;95541;-79
2023/08/19 09:41:28;;;;;;;7.40;6.18;;;26.80;94.60;;;;;;4947883;28;92449;-79
2023/08/19 09:43:54;;;;;;;10.63;6.20;;;26.80;94.90;;;;;;4965266;28;91928;-79
2023/08/19 09:46:21;;;;;;;12.77;6.57;;;26.90;94.80;;;;;;4948025;28;95997;-81
2023/08/19 09:48:57;;;;;;;9.77;6.45;;;27.00;94.90;;;;;;4966114;28;102974;-78
2023/08/19 09:51:24;;;;;;;10.18;6.35;;;27.10;95.00;;;;;;4965772;28;93810;-80
2023/08/19 09:53:50;;;;;;;10.55;6.78;;;27.10;94.40;;;;;;4945997;28;92931;-79
2023/08/19 09:56:23;;;;;;;9.77;6.38;;;27.10;93.90;;;;;;4963083;28;93318;-79
2023/08/19 09:58:51;;;;;;;8.65;6.32;;;27.10;94.00;;;;;;4948466;28;96289;-79
2023/08/19 10:01:17;;;;;;;11.35;6.70;;;27.10;94.30;;;;;;4954346;28;92622;-79
2023/08/19 10:03:46;;;;;;;10.13;6.70;;;27.10;93.70;;;;;;4948010;28;92820;-79
2023/08/19 10:06:16;;;;;;;8.18;6.55;;;27.10;93.50;;;;;;4948186;28;93849;-78
2023/08/19 10:08:46;;;;;;;8.55;6.72;;;27.00;93.60;;;;;;4965888;28;96217;-80
2023/08/19 10:11:16;;;;;;;8.07;6.38;;;26.90;93.70;;;;;;4964467;28;92804;-79
2023/08/19 10:13:45;;;;;;;10.00;6.90;;;26.90;93.30;;;;;;4947015;28;92792;-80
2023/08/19 10:16:13;;;;;;;11.32;7.10;;;26.80;93.80;;;;;;4963632;28;94267;-82
2023/08/19 10:18:42;;;;;;;8.35;6.72;;;26.80;93.70;;;;;;4964212;28;94330;-79
2023/08/19 10:21:13;;;;;;;15.27;6.80;;;26.80;93.90;;;;;;4966273;28;92710;-81
2023/08/19 10:23:42;;;;;;;11.00;6.50;;;26.80;94.10;;;;;;4964940;28;92464;-79
2023/08/19 10:26:07;;;;;;;8.48;6.88;;;26.80;94.10;;;;;;4947199;28;96489;-79
2023/08/19 10:28:33;;;;;;;9.32;7.30;;;26.80;93.90;;;;;;4966276;28;92124;-79
2023/08/19 10:31:07;;;;;;;12.43;7.85;;;26.70;93.90;;;;;;4964744;28;92439;-79
2023/08/19 10:33:37;;;;;;;9.05;6.53;;;26.70;93.80;;;;;;4966879;28;91680;-80
2023/08/19 10:36:07;;;;;;;8.38;6.75;;;26.60;93.90;;;;;;4964521;28;94200;-79
2023/08/19 10:38:53;;;;;;;9.35;7.18;;;26.50;94.10;;;;;;4954545;28;99367;-78
2023/08/19 10:41:26;;;;;;;9.77;7.70;;;26.50;94.20;;;;;;4963047;28;93852;-79
2023/08/19 10:43:57;;;;;;;14.15;8.20;;;26.50;94.00;;;;;;4953094;28;92643;-78
2023/08/19 10:46:39;;;;;;;8.85;7.43;;;26.50;93.90;;;;;;4946911;28;96624;-79
2023/08/19 10:49:07;;;;;;;18.98;9.95;;;26.40;94.10;;;;;;4964050;28;92757;-79
2023/08/19 10:51:51;;;;;;;15.65;8.23;;;26.30;94.30;;;;;;4963372;28;92143;-79
2023/08/19 10:54:43;;;;;;;12.27;7.40;;;26.30;94.50;;;;;;4963955;28;92849;-80
2023/08/19 10:57:22;;;;;;;12.30;8.18;;;26.30;95.10;;;;;;4964896;28;94115;-79
2023/08/19 10:59:53;;;;;;;12.45;7.93;;;26.30;95.20;;;;;;4963542;28;93029;-80
2023/08/19 11:02:18;;;;;;;13.18;8.57;;;26.40;95.60;;;;;;4944197;28;92538;-79
2023/08/19 11:04:47;;;;;;;12.93;8.07;;;26.40;95.40;;;;;;4956350;28;92508;-78
2023/08/19 11:07:13;;;;;;;11.80;8.95;;;26.30;95.50;;;;;;4961684;28;94263;-78
2023/08/19 11:09:41;;;;;;;11.40;8.27;;;26.30;95.60;;;;;;4960100;28;94766;-78
2023/08/19 11:12:07;;;;;;;13.18;8.25;;;26.20;95.60;;;;;;4960968;28;92622;-79
2023/08/19 11:14:33;;;;;;;14.32;8.50;;;26.20;95.70;;;;;;4958643;28;95167;-80
2023/08/19 11:16:59;;;;;;;9.68;7.72;;;26.10;96.00;;;;;;4960749;28;93543;-78
2023/08/19 11:19:25;;;;;;;10.25;7.70;;;26.00;96.00;;;;;;4965145;28;92343;-79
2023/08/19 11:21:54;;;;;;;10.20;7.43;;;25.90;95.40;;;;;;4964811;28;92907;-80
2023/08/19 11:24:43;;;;;;;9.02;7.78;;;25.80;95.50;;;;;;4967489;28;92370;-78
2023/08/19 11:27:08;;;;;;;12.35;7.47;;;25.70;95.70;;;;;;4972946;28;94969;-78
2023/08/19 11:29:38;;;;;;;9.85;7.43;;;25.60;95.70;;;;;;4957732;28;96474;-78
2023/08/19 11:32:04;;;;;;;9.32;7.13;;;25.50;95.60;;;;;;4966151;28;93893;-79
2023/08/19 11:34:30;;;;;;;9.85;7.10;;;25.50;95.80;;;;;;4957099;28;94006;-79
2023/08/19 11:36:57;;;;;;;8.95;7.75;;;25.50;96.10;;;;;;4965077;28;93566;-78
2023/08/19 11:39:22;;;;;;;12.25;7.22;;;25.40;96.30;;;;;;4964290;28;95855;-78
2023/08/19 11:41:48;;;;;;;12.10;7.90;;;25.30;96.20;;;;;;4949262;28;92897;-78
2023/08/19 11:44:14;;;;;;;13.00;7.95;;;25.30;96.40;;;;;;4965615;28;92761;-79
2023/08/19 11:46:40;;;;;;;11.10;8.20;;;25.30;96.70;;;;;;4966959;28;94164;-79
2023/08/19 11:49:09;;;;;;;11.73;7.60;;;25.30;96.90;;;;;;4966112;28;93891;-78
2023/08/19 11:51:39;;;;;;;12.20;7.82;;;25.20;96.90;;;;;;4965970;28;92770;-78
2023/08/19 11:54:08;;;;;;;10.88;8.40;;;25.30;97.00;;;;;;4966924;28;92332;-79
2023/08/19 11:56:47;;;;;;;11.55;8.35;;;25.30;97.10;;;;;;4965796;28;97210;-78
2023/08/19 11:59:12;;;;;;;13.45;8.93;;;25.30;97.00;;;;;;4966888;28;94423;-79
2023/08/19 12:01:38;;;;;;;9.32;8.25;;;25.30;97.00;;;;;;4968589;28;92710;-78
2023/08/19 12:04:11;;;;;;;12.57;8.70;;;25.40;97.20;;;;;;4966342;28;92949;-77
2023/08/19 12:06:38;;;;;;;9.85;7.40;;;25.30;97.00;;;;;;4964473;28;93731;-79
2023/08/19 12:09:04;;;;;;;9.80;7.50;;;25.30;97.20;;;;;;4972976;28;95886;-80
2023/08/19 12:11:30;;;;;;;12.13;9.27;;;25.30;97.40;;;;;;4966461;28;92153;-83
2023/08/19 12:13:56;;;;;;;13.68;9.55;;;25.30;97.40;;;;;;4966988;28;91918;-81
2023/08/19 12:16:22;;;;;;;11.98;8.45;;;25.30;97.50;;;;;;4956452;28;96429;-81
2023/08/19 12:18:48;;;;;;;12.43;9.45;;;25.20;97.70;;;;;;4971314;28;94801;-81
2023/08/19 12:21:14;;;;;;;11.57;9.40;;;25.20;97.90;;;;;;4964255;28;93395;-80
2023/08/19 12:23:40;;;;;;;13.15;9.65;;;25.20;98.00;;;;;;4966257;28;92604;-81
2023/08/19 12:26:06;;;;;;;11.55;9.57;;;25.10;97.80;;;;;;4967258;28;92858;-80
2023/08/19 12:28:31;;;;;;;11.38;9.70;;;25.10;98.10;;;;;;4946360;28;95135;-79
2023/08/19 12:30:57;;;;;;;12.35;9.60;;;25.00;97.90;;;;;;4955713;28;92928;-78
2023/08/19 12:33:23;;;;;;;10.45;8.98;;;24.90;98.00;;;;;;4965255;28;92641;-78
2023/08/19 12:35:49;;;;;;;10.77;9.18;;;24.90;98.00;;;;;;4965730;28;97328;-78
2023/08/19 12:38:18;;;;;;;11.80;10.20;;;24.80;98.10;;;;;;4965160;28;93320;-78
2023/08/19 12:40:45;;;;;;;11.68;9.88;;;24.80;98.30;;;;;;4964773;28;92709;-78
2023/08/19 12:43:12;;;;;;;14.63;10.23;;;24.70;98.50;;;;;;4967852;28;92472;-78